Time;durP1;ratioP1;P1;durP2;ratioP2;P2;SDS_P1;SDS_P2;PMS_P1;PMS_P2;Temp;Humidity;BMP_temperature;BMP_pressure;BME280_temperature;BME280_humidity;BME280_pressure;Samples;Min_cycle;Max_cycle;Signal;HPM_P1;HPM_P2
2023/04/22 00:01:58;;;;;;;5.60;3.88;;;11.30;99.90;;;;;;5107733;27;20420;-73
2023/04/22 00:04:25;;;;;;;4.72;3.92;;;11.30;99.90;;;;;;5079323;28;20402;-73
2023/04/22 00:06:51;;;;;;;4.47;3.72;;;11.30;99.90;;;;;;5096445;27;20935;-73
2023/04/22 00:09:17;;;;;;;7.00;3.90;;;11.40;99.90;;;;;;5082504;28;20439;-73
2023/04/22 00:11:43;;;;;;;5.05;4.03;;;11.40;99.90;;;;;;5078375;28;20417;-73
2023/04/22 00:14:10;;;;;;;4.53;3.72;;;11.40;99.90;;;;;;5097674;28;20484;-73
2023/04/22 00:16:36;;;;;;;4.70;3.60;;;11.40;99.90;;;;;;5094392;27;20410;-73
2023/04/22 00:19:03;;;;;;;4.80;3.72;;;11.30;99.90;;;;;;5063873;28;20413;-73
2023/04/22 00:21:29;;;;;;;5.75;4.18;;;11.20;99.90;;;;;;5077211;28;20940;-72
2023/04/22 00:23:56;;;;;;;4.03;3.60;;;11.20;99.90;;;;;;5081196;28;20418;-73
2023/04/22 00:26:22;;;;;;;5.32;3.83;;;11.20;99.90;;;;;;5076903;28;20414;-73
2023/04/22 00:28:48;;;;;;;4.28;3.53;;;11.30;99.90;;;;;;5095921;28;20408;-73
2023/04/22 00:31:14;;;;;;;4.80;3.90;;;11.30;99.90;;;;;;5089576;28;20408;-73
2023/04/22 00:33:41;;;;;;;6.32;3.63;;;11.30;99.90;;;;;;5093035;27;20920;-73
2023/04/22 00:36:07;;;;;;;5.32;3.65;;;11.30;99.90;;;;;;5095144;28;20422;-73
2023/04/22 00:38:33;;;;;;;4.28;3.63;;;11.20;99.90;;;;;;5059721;28;21148;-73
2023/04/22 00:41:01;;;;;;;4.93;3.90;;;11.20;99.90;;;;;;5078411;28;20453;-73
2023/04/22 00:43:27;;;;;;;5.68;3.90;;;11.30;99.90;;;;;;5076699;28;20471;-73
2023/04/22 00:45:55;;;;;;;4.18;3.53;;;11.40;99.90;;;;;;5082751;28;20404;-73
2023/04/22 00:48:23;;;;;;;5.57;3.75;;;11.40;99.90;;;;;;5087361;28;20461;-73
2023/04/22 00:50:49;;;;;;;5.35;3.60;;;11.50;99.90;;;;;;5107884;28;20393;-73
2023/04/22 00:53:16;;;;;;;3.85;3.45;;;11.60;99.90;;;;;;5077906;28;20804;-73
2023/04/22 00:55:42;;;;;;;4.60;3.58;;;11.60;99.90;;;;;;5090292;28;20416;-73
2023/04/22 00:58:10;;;;;;;3.63;3.15;;;11.70;99.90;;;;;;5092407;28;20490;-73
2023/04/22 01:00:36;;;;;;;3.78;3.17;;;11.70;99.90;;;;;;5081459;28;20417;-73
2023/04/22 01:03:05;;;;;;;4.63;3.50;;;11.70;99.90;;;;;;5095930;28;20420;-73
2023/04/22 01:05:33;;;;;;;6.07;3.08;;;11.60;99.90;;;;;;5088682;28;20412;-72
2023/04/22 01:08:00;;;;;;;3.38;3.08;;;11.50;99.90;;;;;;5072752;27;20435;-73
2023/04/22 01:10:26;;;;;;;5.65;3.30;;;11.50;99.90;;;;;;5097131;27;22457;-72
2023/04/22 01:12:53;;;;;;;3.90;3.07;;;11.60;99.90;;;;;;5092630;27;20406;-73
2023/04/22 01:15:19;;;;;;;4.30;3.35;;;11.50;99.90;;;;;;5110981;27;20411;-73
2023/04/22 01:17:46;;;;;;;4.07;3.13;;;11.50;99.90;;;;;;5094116;27;20413;-73
2023/04/22 01:20:13;;;;;;;4.65;3.05;;;11.60;99.90;;;;;;5083740;28;20440;-73
2023/04/22 01:22:44;;;;;;;4.00;3.20;;;11.70;99.90;;;;;;5091270;28;20446;-73
2023/04/22 01:25:11;;;;;;;4.05;3.13;;;11.60;99.90;;;;;;5100286;28;20418;-73
2023/04/22 01:27:39;;;;;;;4.43;3.25;;;11.60;99.90;;;;;;5098218;27;20412;-73
2023/04/22 01:30:08;;;;;;;4.22;3.03;;;11.60;99.90;;;;;;5072305;28;21336;-73
2023/04/22 01:32:35;;;;;;;3.33;3.00;;;11.60;99.90;;;;;;5089098;28;20442;-73
2023/04/22 01:35:01;;;;;;;3.78;2.90;;;11.60;99.90;;;;;;5082382;28;20405;-73
2023/04/22 01:37:29;;;;;;;3.45;2.83;;;11.50;99.90;;;;;;5109833;27;20405;-73
2023/04/22 01:39:58;;;;;;;3.75;2.80;;;11.50;99.90;;;;;;5094308;27;20819;-73
2023/04/22 01:42:24;;;;;;;3.72;2.53;;;11.50;99.90;;;;;;5087091;28;20450;-72
2023/04/22 01:44:51;;;;;;;3.03;2.50;;;11.50;99.90;;;;;;5086810;28;20768;-73
2023/04/22 01:47:18;;;;;;;3.40;2.30;;;11.40;99.90;;;;;;5097750;28;20480;-73
2023/04/22 01:49:46;;;;;;;3.88;2.40;;;11.40;99.90;;;;;;5096025;27;21121;-73
2023/04/22 01:52:13;;;;;;;2.90;2.25;;;11.40;99.90;;;;;;5094582;27;20428;-73
2023/04/22 01:54:40;;;;;;;2.80;2.47;;;11.40;99.90;;;;;;5100589;27;20539;-73
2023/04/22 01:57:13;;;;;;;3.92;2.58;;;11.40;99.90;;;;;;5073326;28;20412;-74
2023/04/22 01:59:39;;;;;;;3.00;2.42;;;11.50;99.90;;;;;;5062380;27;20413;-73
2023/04/22 02:02:06;;;;;;;2.65;2.45;;;11.60;99.90;;;;;;5094325;27;20422;-74
2023/04/22 02:04:32;;;;;;;3.05;2.70;;;11.60;99.90;;;;;;5102771;27;20434;-74
2023/04/22 02:06:58;;;;;;;3.00;2.70;;;11.60;99.90;;;;;;5097804;27;21176;-74
2023/04/22 02:09:26;;;;;;;3.80;3.00;;;11.50;99.90;;;;;;5084583;28;20530;-74
2023/04/22 02:11:52;;;;;;;3.90;2.80;;;11.50;99.90;;;;;;5083573;28;20408;-74
2023/04/22 02:14:18;;;;;;;3.47;2.80;;;11.50;99.90;;;;;;5081106;28;20439;-74
2023/04/22 02:16:45;;;;;;;4.10;3.33;;;11.50;99.90;;;;;;5082441;28;20411;-74
2023/04/22 02:19:11;;;;;;;3.38;3.08;;;11.60;99.90;;;;;;5097276;27;20427;-74
2023/04/22 02:21:37;;;;;;;3.42;2.83;;;11.80;99.90;;;;;;5085739;28;20408;-74
2023/04/22 02:24:04;;;;;;;3.67;2.60;;;11.90;99.90;;;;;;5108954;27;20426;-74
2023/04/22 02:26:30;;;;;;;3.95;2.80;;;11.90;99.90;;;;;;5088448;28;20435;-74
2023/04/22 02:28:56;;;;;;;3.55;2.70;;;11.90;99.90;;;;;;5113880;27;20899;-74
2023/04/22 02:31:22;;;;;;;3.10;2.40;;;12.00;99.90;;;;;;5069506;28;20748;-74
2023/04/22 02:33:48;;;;;;;3.35;2.45;;;12.00;99.90;;;;;;5099155;27;20434;-74
2023/04/22 02:36:15;;;;;;;3.20;2.40;;;12.00;99.90;;;;;;5081866;28;20408;-74
2023/04/22 02:38:41;;;;;;;3.23;2.70;;;12.00;99.90;;;;;;5081074;28;20424;-74
2023/04/22 02:41:07;;;;;;;3.70;2.50;;;11.90;99.90;;;;;;5078334;28;20413;-74
2023/04/22 02:43:33;;;;;;;3.38;2.50;;;11.90;99.90;;;;;;5108447;27;20453;-74
2023/04/22 02:45:59;;;;;;;3.00;2.40;;;12.00;99.90;;;;;;5095505;27;20415;-74
2023/04/22 02:48:26;;;;;;;3.15;2.53;;;12.00;99.90;;;;;;5081642;28;20421;-74
2023/04/22 02:50:52;;;;;;;3.67;2.85;;;12.00;99.90;;;;;;5097019;27;20466;-74
2023/04/22 02:53:18;;;;;;;3.47;2.78;;;12.00;99.90;;;;;;5076898;27;20776;-74
2023/04/22 02:55:44;;;;;;;3.17;2.40;;;11.90;99.90;;;;;;5106143;27;20512;-74
2023/04/22 02:58:10;;;;;;;3.78;2.50;;;12.00;99.90;;;;;;5094749;27;21021;-74
2023/04/22 03:00:37;;;;;;;3.10;2.47;;;12.00;99.90;;;;;;5111619;27;20415;-74
2023/04/22 03:03:03;;;;;;;3.57;2.77;;;12.00;99.90;;;;;;5093375;28;20412;-74
2023/04/22 03:05:29;;;;;;;3.63;2.70;;;12.00;99.90;;;;;;5085451;28;21271;-74
2023/04/22 03:07:56;;;;;;;2.80;2.50;;;11.90;99.90;;;;;;5104430;27;20763;-74
2023/04/22 03:10:22;;;;;;;3.17;2.63;;;12.00;99.90;;;;;;5077639;28;20489;-74
2023/04/22 03:12:48;;;;;;;5.05;2.70;;;11.90;99.90;;;;;;5078296;28;20413;-74
2023/04/22 03:15:15;;;;;;;3.20;2.50;;;11.80;99.90;;;;;;5090706;27;20416;-74
2023/04/22 03:17:41;;;;;;;2.60;2.40;;;11.70;99.90;;;;;;5086337;28;20416;-74
2023/04/22 03:20:07;;;;;;;3.20;2.75;;;11.70;99.90;;;;;;5077535;28;20780;-74
2023/04/22 03:22:34;;;;;;;3.13;2.55;;;11.70;99.90;;;;;;5096002;27;20441;-74
2023/04/22 03:25:00;;;;;;;3.75;2.60;;;11.70;99.90;;;;;;5076375;28;20412;-74
2023/04/22 03:27:26;;;;;;;2.95;2.40;;;11.80;99.90;;;;;;5098789;28;21050;-74
2023/04/22 03:29:52;;;;;;;2.60;2.40;;;11.70;99.90;;;;;;5081089;27;20835;-74
2023/04/22 03:32:19;;;;;;;4.22;2.55;;;11.70;99.90;;;;;;5109551;27;20760;-74
2023/04/22 03:34:45;;;;;;;2.97;2.40;;;11.70;99.90;;;;;;5095088;27;20841;-74
2023/04/22 03:37:11;;;;;;;2.78;2.35;;;11.60;99.90;;;;;;5096395;27;20910;-74
2023/04/22 03:39:37;;;;;;;3.78;2.50;;;11.60;99.90;;;;;;5095520;28;20881;-74
2023/04/22 03:42:04;;;;;;;2.43;2.20;;;11.60;99.90;;;;;;5095344;27;20502;-74
2023/04/22 03:44:30;;;;;;;3.75;2.75;;;11.70;99.90;;;;;;5095669;27;20996;-74
2023/04/22 03:46:56;;;;;;;2.90;2.60;;;11.70;99.90;;;;;;5076363;28;20974;-74
2023/04/22 03:49:22;;;;;;;4.90;3.07;;;11.70;99.90;;;;;;5076172;28;20401;-74
2023/04/22 03:51:48;;;;;;;3.60;3.25;;;11.70;99.90;;;;;;5095371;27;20410;-74
2023/04/22 03:54:15;;;;;;;4.13;3.38;;;11.80;99.90;;;;;;5078463;28;20489;-74
2023/04/22 03:56:41;;;;;;;4.18;3.08;;;11.90;99.90;;;;;;5102679;27;20437;-74
2023/04/22 03:59:07;;;;;;;4.97;3.20;;;12.00;99.90;;;;;;5078201;28;20407;-74
2023/04/22 04:01:34;;;;;;;3.97;3.35;;;12.00;99.90;;;;;;5097347;27;20918;-74
2023/04/22 04:04:01;;;;;;;4.53;3.13;;;11.90;99.90;;;;;;5072026;28;20432;-74
2023/04/22 04:06:27;;;;;;;3.55;3.13;;;12.00;99.90;;;;;;5083463;28;20601;-74
2023/04/22 04:08:54;;;;;;;4.70;3.40;;;12.10;99.90;;;;;;5084623;27;20503;-74
2023/04/22 04:11:20;;;;;;;3.72;3.10;;;12.10;99.90;;;;;;5087316;28;20412;-74
2023/04/22 04:13:46;;;;;;;3.40;3.08;;;12.20;99.90;;;;;;5093390;28;20920;-74
2023/04/22 04:16:12;;;;;;;3.77;3.10;;;12.20;99.90;;;;;;5094881;28;20799;-74
2023/04/22 04:18:38;;;;;;;3.35;2.70;;;12.20;99.90;;;;;;5102006;27;20906;-74
2023/04/22 04:21:05;;;;;;;3.58;2.67;;;12.30;99.90;;;;;;5081719;28;20427;-74
2023/04/22 04:23:31;;;;;;;4.30;2.90;;;12.30;99.90;;;;;;5090528;28;20421;-74
2023/04/22 04:26:01;;;;;;;3.70;2.92;;;12.30;99.90;;;;;;5080440;28;20901;-74
2023/04/22 04:28:33;;;;;;;4.10;2.63;;;12.30;99.90;;;;;;5095854;28;20487;-74
2023/04/22 04:31:01;;;;;;;3.78;2.80;;;12.40;99.90;;;;;;5095674;27;20403;-74
2023/04/22 04:33:30;;;;;;;4.93;2.70;;;12.50;99.90;;;;;;5088765;27;20932;-73
2023/04/22 04:35:58;;;;;;;4.68;2.72;;;12.50;99.90;;;;;;5093545;28;20477;-74
2023/04/22 04:38:25;;;;;;;3.75;3.00;;;12.50;99.90;;;;;;5096164;28;20451;-74
2023/04/22 04:40:52;;;;;;;4.72;2.70;;;12.50;99.90;;;;;;5089732;28;20407;-74
2023/04/22 04:43:20;;;;;;;3.72;2.45;;;12.50;99.90;;;;;;5090784;28;20485;-74
2023/04/22 04:45:46;;;;;;;3.53;2.50;;;12.50;99.90;;;;;;5082874;28;20924;-74
2023/04/22 04:48:13;;;;;;;3.00;2.40;;;12.50;99.90;;;;;;5094532;28;20404;-74
2023/04/22 04:50:43;;;;;;;3.47;2.60;;;12.50;99.90;;;;;;5079083;28;20433;-74
2023/04/22 04:53:10;;;;;;;3.10;2.50;;;12.50;99.90;;;;;;5068063;28;20406;-74
2023/04/22 04:55:37;;;;;;;4.07;2.90;;;12.50;99.90;;;;;;5099061;28;20409;-74
2023/04/22 04:58:04;;;;;;;5.07;3.00;;;12.60;99.90;;;;;;5106084;28;20868;-74
2023/04/22 05:00:30;;;;;;;4.30;3.07;;;12.70;99.90;;;;;;5100535;28;20410;-74
2023/04/22 05:02:56;;;;;;;3.40;2.67;;;12.70;99.90;;;;;;5091005;28;21181;-74
2023/04/22 05:05:22;;;;;;;4.10;2.70;;;12.90;99.90;;;;;;5075890;28;20934;-74
2023/04/22 05:07:50;;;;;;;3.63;2.83;;;13.00;99.90;;;;;;5096336;28;20400;-74
2023/04/22 05:10:16;;;;;;;5.93;3.22;;;13.00;99.90;;;;;;5096174;28;20411;-74
2023/04/22 05:12:45;;;;;;;4.82;3.00;;;13.10;99.90;;;;;;5082272;28;20403;-74
2023/04/22 05:15:11;;;;;;;3.92;2.97;;;13.20;99.90;;;;;;5071170;28;20499;-74
2023/04/22 05:17:37;;;;;;;3.22;2.70;;;13.20;99.90;;;;;;5094243;28;20409;-74
2023/04/22 05:20:04;;;;;;;5.25;3.20;;;13.30;99.90;;;;;;5075111;28;20404;-74
2023/04/22 05:22:30;;;;;;;5.20;3.30;;;13.40;99.90;;;;;;5077910;28;20498;-74
2023/04/22 05:24:56;;;;;;;4.40;3.17;;;13.40;99.90;;;;;;5096283;28;20399;-74
2023/04/22 05:27:23;;;;;;;4.20;3.00;;;13.50;99.90;;;;;;5091944;28;20429;-74
2023/04/22 05:29:50;;;;;;;3.30;2.95;;;13.60;99.90;;;;;;5073997;28;20807;-74
2023/04/22 05:32:16;;;;;;;4.10;2.90;;;13.70;99.90;;;;;;5104345;28;20429;-74
2023/04/22 05:34:42;;;;;;;3.75;2.85;;;13.70;99.90;;;;;;5076766;28;20501;-74
2023/04/22 05:37:09;;;;;;;4.07;2.90;;;13.80;99.90;;;;;;5094452;28;20420;-74
2023/04/22 05:39:36;;;;;;;4.83;2.70;;;13.80;99.90;;;;;;5061852;28;20952;-74
2023/04/22 05:42:02;;;;;;;4.72;2.75;;;13.80;99.90;;;;;;5099928;28;20406;-74
2023/04/22 05:44:28;;;;;;;3.92;2.78;;;13.90;99.90;;;;;;5109133;28;20410;-74
2023/04/22 05:46:54;;;;;;;3.72;2.90;;;13.90;99.90;;;;;;5109466;28;20449;-74
2023/04/22 05:49:21;;;;;;;3.30;2.90;;;13.90;99.90;;;;;;5074755;28;20439;-74
2023/04/22 05:51:47;;;;;;;4.20;2.80;;;13.90;99.90;;;;;;5080229;28;20410;-74
2023/04/22 05:54:13;;;;;;;4.85;2.97;;;13.90;99.90;;;;;;5105621;27;20410;-74
2023/04/22 05:56:40;;;;;;;4.35;3.00;;;13.90;99.90;;;;;;5083534;28;20519;-74
2023/04/22 05:59:06;;;;;;;4.60;3.30;;;13.90;99.90;;;;;;5110109;27;20924;-74
2023/04/22 06:01:32;;;;;;;4.32;3.10;;;13.90;99.90;;;;;;5102943;27;20417;-74
2023/04/22 06:03:59;;;;;;;3.83;3.10;;;13.90;99.90;;;;;;5098092;27;20429;-74
2023/04/22 06:06:26;;;;;;;5.67;3.20;;;13.90;99.90;;;;;;5102408;27;20450;-74
2023/04/22 06:08:52;;;;;;;5.10;3.30;;;14.00;99.90;;;;;;5093996;27;20400;-74
2023/04/22 06:11:18;;;;;;;4.88;2.85;;;14.00;99.90;;;;;;5080869;27;20417;-74
2023/04/22 06:13:44;;;;;;;6.03;2.90;;;14.10;99.90;;;;;;5090653;27;20415;-74
2023/04/22 06:16:11;;;;;;;4.75;2.75;;;14.10;99.90;;;;;;5080936;28;20442;-74
2023/04/22 06:18:37;;;;;;;4.35;2.95;;;14.20;99.90;;;;;;5101424;27;20917;-74
2023/04/22 06:21:03;;;;;;;5.75;3.30;;;14.20;99.90;;;;;;5102681;27;20402;-74
2023/04/22 06:23:30;;;;;;;4.82;3.10;;;14.30;99.90;;;;;;5100812;27;20417;-74
2023/04/22 06:25:57;;;;;;;5.82;3.35;;;14.30;99.90;;;;;;5074654;28;20428;-74
2023/04/22 06:28:23;;;;;;;5.13;3.20;;;14.40;99.90;;;;;;5093780;27;20413;-74
2023/04/22 06:30:50;;;;;;;6.65;3.60;;;14.50;99.90;;;;;;5096408;28;20929;-74
2023/04/22 06:33:16;;;;;;;6.22;3.60;;;14.50;99.90;;;;;;5081400;28;20400;-74
2023/04/22 06:35:42;;;;;;;4.35;3.15;;;14.50;99.90;;;;;;5099980;27;20412;-74
2023/04/22 06:38:08;;;;;;;6.82;3.70;;;14.60;99.90;;;;;;5088785;27;20818;-74
2023/04/22 06:40:34;;;;;;;5.07;3.40;;;14.60;99.90;;;;;;5102128;27;20410;-74
2023/04/22 06:43:01;;;;;;;4.03;3.38;;;14.60;99.90;;;;;;5089770;28;20402;-74
2023/04/22 06:45:27;;;;;;;6.65;3.80;;;14.70;99.90;;;;;;5072116;28;20844;-74
2023/04/22 06:47:54;;;;;;;4.88;3.35;;;14.80;99.90;;;;;;5079861;28;20423;-74
2023/04/22 06:50:20;;;;;;;5.57;3.60;;;15.00;99.90;;;;;;5095409;27;20407;-74
2023/04/22 06:52:47;;;;;;;6.15;3.58;;;15.10;99.90;;;;;;5100631;27;20410;-74
2023/04/22 06:55:13;;;;;;;5.60;3.33;;;15.30;99.90;;;;;;5097824;27;20790;-74
2023/04/22 06:57:39;;;;;;;7.93;3.72;;;15.50;99.90;;;;;;5100566;27;20407;-74
2023/04/22 07:00:08;;;;;;;5.68;3.30;;;15.60;99.90;;;;;;5064253;27;20454;-74
2023/04/22 07:02:34;;;;;;;8.20;3.72;;;15.70;99.90;;;;;;5098773;28;20760;-74
2023/04/22 07:05:00;;;;;;;7.40;3.60;;;15.80;99.90;;;;;;5096747;27;20398;-74
2023/04/22 07:07:27;;;;;;;5.10;3.63;;;15.90;99.90;;;;;;5097993;28;20674;-74
2023/04/22 07:09:53;;;;;;;7.45;3.63;;;16.00;99.90;;;;;;5098047;27;20410;-74
2023/04/22 07:12:19;;;;;;;8.52;3.70;;;16.10;99.90;;;;;;5098423;27;20899;-74
2023/04/22 07:14:47;;;;;;;5.32;3.47;;;16.20;99.90;;;;;;5104959;27;20908;-74
2023/04/22 07:17:18;;;;;;;5.95;3.60;;;16.20;99.90;;;;;;5065435;28;20418;-74
2023/04/22 07:19:44;;;;;;;4.65;3.40;;;16.30;99.90;;;;;;5090840;28;20483;-74
2023/04/22 07:22:10;;;;;;;7.85;3.70;;;16.30;99.90;;;;;;5084368;28;20412;-74
2023/04/22 07:24:37;;;;;;;5.38;3.30;;;16.40;99.90;;;;;;5106516;27;20406;-74
2023/04/22 07:27:03;;;;;;;4.83;3.57;;;16.50;99.90;;;;;;5069993;28;20983;-74
2023/04/22 07:29:30;;;;;;;9.55;3.42;;;16.60;99.90;;;;;;5095992;27;20416;-74
2023/04/22 07:31:56;;;;;;;5.63;3.25;;;16.70;99.90;;;;;;5088123;28;20477;-74
2023/04/22 07:34:22;;;;;;;6.17;3.23;;;16.80;99.90;;;;;;5097674;27;20430;-74
2023/04/22 07:36:53;;;;;;;5.32;3.25;;;16.80;99.90;;;;;;5099914;27;20404;-74
2023/04/22 07:39:20;;;;;;;5.85;3.25;;;16.90;99.90;;;;;;5077008;28;20510;-74
2023/04/22 07:41:46;;;;;;;8.00;3.60;;;17.00;99.90;;;;;;5107079;27;20419;-74
2023/04/22 07:44:17;;;;;;;6.18;3.30;;;17.10;99.90;;;;;;5089909;28;20406;-74
2023/04/22 07:46:43;;;;;;;5.22;2.97;;;17.20;99.90;;;;;;5077966;27;20507;-74
2023/04/22 07:49:12;;;;;;;4.63;3.08;;;17.20;99.90;;;;;;5093461;27;20948;-74
2023/04/22 07:51:39;;;;;;;6.18;3.47;;;17.30;99.90;;;;;;5085466;28;20408;-74
2023/04/22 07:54:06;;;;;;;7.63;3.90;;;17.50;99.90;;;;;;5097523;27;20396;-74
2023/04/22 07:56:33;;;;;;;6.65;3.67;;;17.60;99.90;;;;;;5098611;27;20506;-74
2023/04/22 07:58:59;;;;;;;8.73;3.90;;;17.70;99.90;;;;;;5097606;28;20507;-74
2023/04/22 08:01:26;;;;;;;7.28;3.72;;;17.70;99.90;;;;;;5103042;27;20442;-74
2023/04/22 08:03:52;;;;;;;8.15;4.00;;;17.80;99.90;;;;;;5101034;28;20418;-74
2023/04/22 08:06:18;;;;;;;5.38;3.60;;;17.80;99.90;;;;;;5088178;28;20397;-74
2023/04/22 08:08:45;;;;;;;7.97;3.78;;;17.90;99.90;;;;;;5108394;27;20444;-74
2023/04/22 08:11:11;;;;;;;6.35;3.63;;;17.80;99.90;;;;;;5111820;27;20422;-74
2023/04/22 08:13:38;;;;;;;9.35;3.90;;;17.90;99.90;;;;;;5102528;27;20408;-74
2023/04/22 08:16:06;;;;;;;7.40;3.80;;;18.00;99.90;;;;;;5098136;28;20408;-74
2023/04/22 08:18:32;;;;;;;5.90;3.40;;;18.00;99.90;;;;;;5075497;27;20413;-74
2023/04/22 08:20:58;;;;;;;5.70;3.45;;;18.10;99.90;;;;;;5109774;27;20414;-74
2023/04/22 08:23:25;;;;;;;7.97;3.30;;;18.10;99.90;;;;;;5104786;27;20405;-74
2023/04/22 08:25:51;;;;;;;5.07;3.20;;;18.20;99.90;;;;;;5069719;28;20402;-74
2023/04/22 08:28:18;;;;;;;8.38;3.97;;;18.30;99.90;;;;;;5085464;28;20441;-74
2023/04/22 08:30:44;;;;;;;4.63;3.17;;;18.40;99.90;;;;;;5096657;28;20397;-74
2023/04/22 08:33:10;;;;;;;6.97;3.38;;;18.40;99.90;;;;;;5099614;28;20461;-74
2023/04/22 08:35:38;;;;;;;6.25;3.58;;;18.40;99.90;;;;;;5080996;28;20462;-74
2023/04/22 08:38:04;;;;;;;6.18;3.45;;;18.50;99.90;;;;;;5080852;28;20406;-74
2023/04/22 08:40:31;;;;;;;6.07;3.60;;;18.50;99.90;;;;;;5084195;28;20850;-75
2023/04/22 08:42:57;;;;;;;7.07;3.40;;;18.60;99.90;;;;;;5106150;27;20412;-75
2023/04/22 08:45:24;;;;;;;4.70;3.00;;;18.70;99.90;;;;;;5080746;28;20400;-74
2023/04/22 08:47:55;;;;;;;6.72;3.15;;;18.90;99.90;;;;;;5086679;28;20426;-74
2023/04/22 08:50:21;;;;;;;4.47;3.10;;;18.90;99.90;;;;;;5085473;28;20408;-74
2023/04/22 08:52:48;;;;;;;6.18;3.00;;;19.00;99.90;;;;;;5089723;28;20418;-74
2023/04/22 08:55:14;;;;;;;5.97;3.10;;;19.10;99.90;;;;;;5079337;28;20404;-74
2023/04/22 08:57:40;;;;;;;5.00;3.00;;;19.30;99.90;;;;;;5088393;28;20408;-74
2023/04/22 09:00:08;;;;;;;6.47;2.88;;;19.40;99.90;;;;;;5088980;28;21228;-74
2023/04/22 09:02:37;;;;;;;4.43;3.00;;;19.50;99.90;;;;;;5100040;28;20782;-74
2023/04/22 09:05:05;;;;;;;6.30;3.03;;;19.60;99.90;;;;;;5101223;28;20465;-75
2023/04/22 09:07:32;;;;;;;7.13;3.10;;;19.70;99.90;;;;;;5101244;28;20444;-74
2023/04/22 09:09:58;;;;;;;4.43;3.00;;;19.90;99.90;;;;;;5079997;28;20924;-74
2023/04/22 09:12:26;;;;;;;4.68;2.75;;;19.90;99.90;;;;;;5103944;28;20502;-74
2023/04/22 09:14:53;;;;;;;7.23;2.97;;;19.90;99.90;;;;;;5080425;28;20986;-74
2023/04/22 09:17:36;;;;;;;6.40;3.00;;;19.90;99.90;;;;;;5098111;28;20425;-74
2023/04/22 09:20:14;;;;;;;5.05;3.30;;;20.00;99.90;;;;;;5085264;28;20444;-74
2023/04/22 09:22:47;;;;;;;4.25;2.70;;;20.00;99.90;;;;;;5094954;28;20421;-73
2023/04/22 09:25:19;;;;;;;4.97;2.70;;;20.00;99.90;;;;;;5084260;28;20974;-73
2023/04/22 09:27:59;;;;;;;6.80;2.90;;;20.10;99.90;;;;;;5081681;27;20423;-73
2023/04/22 09:30:32;;;;;;;6.00;3.30;;;20.10;99.90;;;;;;5117837;27;20437;-73
2023/04/22 09:33:02;;;;;;;5.25;3.10;;;20.00;99.90;;;;;;5104682;28;20537;-73
2023/04/22 09:35:32;;;;;;;6.22;3.10;;;20.10;99.90;;;;;;5107860;28;20408;-73
2023/04/22 09:38:02;;;;;;;5.25;3.00;;;20.20;99.90;;;;;;5101676;28;20418;-73
2023/04/22 09:40:29;;;;;;;6.35;3.10;;;20.30;99.90;;;;;;5090981;28;20408;-73
2023/04/22 09:43:00;;;;;;;4.40;2.90;;;20.30;99.90;;;;;;5084847;28;20916;-73
2023/04/22 09:45:29;;;;;;;6.97;3.10;;;20.40;99.90;;;;;;5087785;28;20400;-73
2023/04/22 09:48:18;;;;;;;6.07;2.97;;;20.40;99.90;;;;;;5087368;28;20417;-73
2023/04/22 09:50:48;;;;;;;5.93;3.20;;;20.20;99.90;;;;;;5084587;28;20406;-73
2023/04/22 09:53:18;;;;;;;4.45;2.65;;;20.30;99.90;;;;;;5100896;28;20412;-73
2023/04/22 09:55:49;;;;;;;5.22;2.90;;;20.60;99.90;;;;;;5088762;28;20989;-73
2023/04/22 09:58:22;;;;;;;6.57;3.03;;;20.50;99.90;;;;;;5086896;27;20830;-73
2023/04/22 10:01:02;;;;;;;6.38;3.30;;;20.40;99.90;;;;;;5090130;28;20875;-73
2023/04/22 10:03:28;;;;;;;4.10;2.72;;;20.60;99.90;;;;;;5096721;27;20837;-73
2023/04/22 10:05:54;;;;;;;4.80;2.90;;;20.70;99.90;;;;;;5111189;27;20404;-73
2023/04/22 10:08:21;;;;;;;6.23;3.00;;;20.90;99.90;;;;;;5081755;28;20402;-73
2023/04/22 10:10:47;;;;;;;4.38;3.15;;;20.80;99.90;;;;;;5082525;27;20961;-73
2023/04/22 10:13:13;;;;;;;5.25;3.20;;;21.00;99.90;;;;;;5089793;28;20396;-73
2023/04/22 10:15:50;;;;;;;7.97;3.20;;;21.00;99.90;;;;;;5101477;27;20410;-73
2023/04/22 10:18:29;;;;;;;4.82;2.90;;;21.10;99.90;;;;;;5085839;28;20487;-73
2023/04/22 10:20:58;;;;;;;4.35;2.88;;;21.10;99.90;;;;;;5100667;28;20875;-73
2023/04/22 10:23:25;;;;;;;7.75;3.30;;;21.00;99.90;;;;;;5083694;28;20817;-73
2023/04/22 10:25:55;;;;;;;5.30;3.03;;;21.00;99.90;;;;;;5095195;27;20406;-73
2023/04/22 10:28:28;;;;;;;5.25;3.40;;;21.00;99.90;;;;;;5083212;27;20431;-73
2023/04/22 10:30:54;;;;;;;6.18;3.10;;;21.00;99.90;;;;;;5098668;27;21003;-73
2023/04/22 10:33:20;;;;;;;4.78;3.20;;;20.90;99.90;;;;;;5087861;28;21113;-73
2023/04/22 10:36:18;;;;;;;5.93;3.20;;;20.90;99.90;;;;;;5080613;27;20548;-73
2023/04/22 10:38:54;;;;;;;5.55;3.10;;;20.80;99.90;;;;;;5084596;27;20476;-73
2023/04/22 10:41:33;;;;;;;5.82;3.30;;;20.80;99.90;;;;;;5103772;27;20426;-73
2023/04/22 10:44:07;;;;;;;6.90;3.15;;;20.80;99.90;;;;;;5110196;27;20416;-73
2023/04/22 10:46:36;;;;;;;5.60;3.10;;;20.90;99.90;;;;;;5105540;27;20414;-73
2023/04/22 10:49:21;;;;;;;5.50;3.00;;;20.90;99.90;;;;;;5098511;27;20470;-73
2023/04/22 10:51:58;;;;;;;6.18;3.22;;;20.90;99.90;;;;;;5096304;27;21191;-73
2023/04/22 10:54:28;;;;;;;6.22;3.30;;;20.90;99.90;;;;;;5095341;27;20405;-73
2023/04/22 10:57:15;;;;;;;3.88;2.97;;;20.80;99.90;;;;;;5084943;28;20408;-73
2023/04/22 10:59:46;;;;;;;3.65;2.80;;;20.70;99.90;;;;;;5088443;27;20771;-73
2023/04/22 11:02:15;;;;;;;3.88;2.70;;;20.70;99.90;;;;;;5090885;28;20909;-73
2023/04/22 11:04:42;;;;;;;4.18;2.70;;;20.60;99.90;;;;;;5083201;27;20461;-73
2023/04/22 11:07:19;;;;;;;5.17;2.83;;;20.70;99.90;;;;;;5083635;28;20457;-73
2023/04/22 11:10:08;;;;;;;4.50;2.92;;;20.70;99.90;;;;;;5104605;27;20934;-73
2023/04/22 11:12:34;;;;;;;6.78;3.15;;;20.60;99.90;;;;;;5113229;27;20501;-73
2023/04/22 11:15:16;;;;;;;6.97;3.10;;;20.60;99.90;;;;;;5104957;27;20523;-73
2023/04/22 11:17:46;;;;;;;5.30;3.03;;;20.60;99.90;;;;;;5061569;27;20512;-73
2023/04/22 11:20:17;;;;;;;4.47;3.00;;;20.50;99.90;;;;;;5073607;28;20404;-73
2023/04/22 11:22:53;;;;;;;8.30;3.30;;;20.50;99.90;;;;;;5087482;28;20428;-73
2023/04/22 11:25:22;;;;;;;7.03;2.90;;;20.60;99.90;;;;;;5084594;28;20472;-73
2023/04/22 11:27:48;;;;;;;6.35;2.90;;;20.60;99.90;;;;;;5080340;28;20958;-73
2023/04/22 11:30:18;;;;;;;3.60;2.70;;;20.60;99.90;;;;;;5084881;28;20408;-74
2023/04/22 11:32:58;;;;;;;4.72;2.90;;;20.70;99.90;;;;;;5095399;27;20420;-75
2023/04/22 11:35:30;;;;;;;5.13;3.17;;;20.70;99.90;;;;;;5097415;27;20422;-75
2023/04/22 11:38:01;;;;;;;4.47;3.00;;;20.80;99.90;;;;;;5097368;28;20474;-75
2023/04/22 11:40:39;;;;;;;4.63;2.90;;;20.80;99.90;;;;;;5075861;27;20822;-74
2023/04/22 11:43:08;;;;;;;5.70;3.10;;;20.80;99.90;;;;;;5102084;27;20958;-74
2023/04/22 11:45:36;;;;;;;5.10;2.90;;;20.80;99.90;;;;;;5100701;28;20398;-74
2023/04/22 11:48:07;;;;;;;4.90;3.00;;;20.80;99.90;;;;;;5099698;28;20414;-74
2023/04/22 11:50:36;;;;;;;5.90;2.90;;;20.90;99.90;;;;;;5081539;27;20396;-75
2023/04/22 11:53:23;;;;;;;5.88;3.10;;;20.90;99.90;;;;;;5088757;27;20421;-74
2023/04/22 11:55:51;;;;;;;7.63;3.30;;;20.80;99.90;;;;;;5072148;27;21184;-75
2023/04/22 11:58:26;;;;;;;5.57;3.07;;;20.70;99.90;;;;;;5076811;28;20415;-74
2023/04/22 12:00:56;;;;;;;8.70;3.25;;;20.60;99.90;;;;;;5103877;27;20802;-74
2023/04/22 12:03:28;;;;;;;7.20;3.47;;;20.60;99.90;;;;;;5095680;27;20531;-74
2023/04/22 12:06:05;;;;;;;5.97;3.20;;;20.50;99.90;;;;;;5061760;28;20444;-75
2023/04/22 12:08:41;;;;;;;4.93;3.30;;;20.60;99.90;;;;;;5091495;27;20454;-74
2023/04/22 12:11:10;;;;;;;7.45;3.47;;;20.60;99.90;;;;;;5076743;27;20776;-75
2023/04/22 12:13:36;;;;;;;5.75;3.03;;;20.60;99.90;;;;;;5095998;27;20499;-74
2023/04/22 12:16:21;;;;;;;6.47;3.10;;;20.70;99.90;;;;;;5078292;28;20536;-74
2023/04/22 12:18:52;;;;;;;7.85;3.55;;;20.60;99.90;;;;;;5090984;27;20527;-74
2023/04/22 12:21:23;;;;;;;7.40;3.60;;;20.60;99.90;;;;;;5093311;27;20417;-74
2023/04/22 12:23:57;;;;;;;5.70;3.15;;;20.60;99.90;;;;;;5093125;27;20418;-74
2023/04/22 12:26:26;;;;;;;5.57;3.20;;;20.60;99.90;;;;;;5075822;28;20429;-74
2023/04/22 12:28:54;;;;;;;6.28;3.35;;;20.60;99.90;;;;;;5082525;28;20425;-74
2023/04/22 12:31:20;;;;;;;4.50;3.10;;;20.50;99.90;;;;;;5080138;28;20474;-74
2023/04/22 12:33:47;;;;;;;3.88;2.90;;;20.30;99.90;;;;;;5078919;28;21509;-74
2023/04/22 12:36:13;;;;;;;6.68;3.20;;;20.40;99.90;;;;;;5099554;27;20410;-74
2023/04/22 12:38:40;;;;;;;6.22;3.30;;;20.40;99.90;;;;;;5061069;28;20465;-74
2023/04/22 12:41:07;;;;;;;5.47;3.10;;;20.40;99.90;;;;;;5080324;28;20509;-74
2023/04/22 12:43:35;;;;;;;5.68;3.10;;;20.40;99.90;;;;;;5102119;27;20408;-74
2023/04/22 12:46:04;;;;;;;5.93;3.20;;;20.50;99.90;;;;;;5074880;28;20461;-74
2023/04/22 12:48:31;;;;;;;4.32;2.83;;;20.40;99.90;;;;;;5111409;28;20445;-74
2023/04/22 12:50:59;;;;;;;6.20;3.22;;;20.30;99.90;;;;;;5068641;28;20406;-73
2023/04/22 12:53:26;;;;;;;7.15;3.30;;;20.30;99.90;;;;;;5090285;28;20751;-74